CST,Max TemperatureF,Mean TemperatureF,Min TemperatureF,Max Dew PointF,MeanDew PointF,Min DewpointF,Max Humidity, Mean Humidity, Min Humidity, Max Sea Level PressureIn, Mean Sea Level PressureIn, Min Sea Level PressureIn, Max VisibilityMiles, Mean VisibilityMiles, Min VisibilityMiles, Max Wind SpeedMPH, Mean Wind SpeedMPH, Max Gust SpeedMPH,PrecipitationIn, CloudCover, Events, WindDirDegrees
2012-12-1,82,74,65,75,68,66,100,88,59,30.17,30.11,30.08,10,9,4,16,7,20,0.00,3,,150
2012-12-2,83,74,64,74,67,63,100,86,51,30.18,30.12,30.09,10,8,0,13,6,22,0.00,1,Fog,140
2012-12-3,84,75,66,75,68,64,100,88,53,30.10,30.05,30.01,10,9,3,16,6,23,0.00,4,Rain,142
2012-12-4,81,71,61,75,67,61,100,94,63,30.16,30.10,30.03,10,6,0,16,3,,0.19,5,Fog-Rain,148
2012-12-5,72,62,53,61,58,53,100,90,64,30.20,30.12,30.05,10,7,0,12,4,,0.00,2,Fog,355
2012-12-6,79,64,50,67,60,50,100,88,55,30.05,29.95,29.89,10,5,0,10,3,,0.00,5,Fog,97
2012-12-7,82,68,55,75,64,55,100,89,57,29.91,29.86,29.81,10,6,0,14,3,17,0.01,5,Fog,137
2012-12-8,83,72,61,76,67,61,100,89,54,29.92,29.87,29.84,10,6,0,16,4,22,0.01,3,Fog-Rain,152
2012-12-9,81,72,62,77,70,63,100,93,71,29.92,29.86,29.80,10,8,0,21,6,25,0.00,4,Fog,165
2012-12-10,74,56,39,74,37,26,100,62,37,30.12,30.00,29.81,10,9,4,26,14,34,0.05,5,Rain,337
2012-12-11,57,45,33,38,29,25,82,58,29,30.23,30.14,30.10,10,10,10,9,6,,0.00,1,,9
2012-12-12,65,49,33,37,31,24,93,61,21,30.33,30.27,30.21,10,10,10,13,3,,0.00,0,,43
2012-12-13,70,52,34,50,41,32,100,68,36,30.33,30.26,30.20,10,10,10,12,4,18,0.00,3,,66
2012-12-14,75,66,57,67,60,50,89,77,62,30.19,30.07,29.94,10,10,10,17,7,25,0.00,6,,115
2012-12-15,79,74,69,75,71,67,100,93,74,29.97,29.91,29.87,10,8,5,16,10,23,0.00,7,Rain,157
2012-12-16,77,70,64,77,71,64,100,100,94,29.87,29.81,29.73,10,6,0,20,7,28,0.34,7,Fog-Rain,184
2012-12-17,75,61,47,64,49,34,100,73,23,29.96,29.90,29.83,10,10,0,17,5,23,0.00,0,Fog,298
2012-12-18,81,64,46,69,57,45,100,82,38,29.96,29.91,29.86,10,7,0,18,6,25,0.00,0,Fog,165
2012-12-19,81,74,68,77,71,68,100,92,68,29.87,29.81,29.73,10,8,4,25,12,33,0.00,5,,161
2012-12-20,73,54,35,74,30,14,100,43,19,30.47,30.21,29.79,10,9,4,26,15,41,0.01,2,Rain,319
2012-12-21,61,46,30,34,25,18,86,55,19,30.53,30.45,30.39,10,10,10,7,1,,0.00,0,,4
2012-12-22,73,54,35,59,46,32,91,70,45,30.40,30.27,30.13,10,10,10,16,5,23,0.00,3,,121
2012-12-23,78,70,63,71,65,60,100,86,58,30.12,30.00,29.90,10,10,7,18,8,26,0.00,4,Rain,187
2012-12-24,79,70,61,70,66,62,100,89,56,29.97,29.87,29.75,10,8,0,15,6,20,0.00,3,Fog,199
2012-12-25,81,58,35,74,53,26,100,70,19,30.07,29.75,29.61,10,9,7,30,15,44,0.01,3,,254
2012-12-26,51,42,33,31,28,25,87,64,42,30.26,30.16,30.07,10,10,10,22,12,33,0.00,2,,339
2012-12-27,67,52,37,67,50,32,100,89,70,30.13,29.96,29.82,10,7,2,12,6,17,0.10,8,Rain,59
2012-12-28,68,56,43,68,54,36,100,85,50,30.16,29.90,29.76,10,7,0,21,9,29,0.19,5,Fog-Rain,326
2012-12-29,52,44,35,36,29,24,86,61,34,30.45,30.36,30.16,10,10,10,18,9,26,0.00,0,,346
2012-12-30,61,47,33,53,39,29,90,74,53,30.46,30.36,30.21,10,10,10,15,7,22,0.00,2,,61
2012-12-31,72,64,57,72,65,53,100,96,77,30.19,30.04,29.94,10,8,3,17,9,24,0.16,8,Rain,127